Terminal Aerodrome Forecast
Issued by NWS

Home | Current Version | Previous Version | Text Only | Print | Product List | Glossary On
Versions: 1 2 3 4 5 6 7 8 9 10 11 12 13 14 15
000
FTUS42 KMLB 251140
TAFSUA
TAF
KSUA 251140Z 2512/2612 00000KT P6SM SCT150 BKN250
     FM251600 10010KT P6SM SCT030 BKN060
     FM260000 16006KT P6SM SCT250=

USA.gov is the U.S. government's official web portal to all federal, state and local government web resources and services.